Time;durP1;ratioP1;P1;durP2;ratioP2;P2;SDS_P1;SDS_P2;PMS_P1;PMS_P2;Temp;Humidity;BMP_temperature;BMP_pressure;BME280_temperature;BME280_humidity;BME280_pressure;Samples;Min_cycle;Max_cycle;Signal;HPM_P1;HPM_P2
2022/03/08 00:00:23;;;;;;;14.65;8.70;;;;;;;-142.75;100.00;79336.94;4993245;28;20503;-68
2022/03/08 00:02:49;;;;;;;12.60;7.90;;;;;;;-142.75;100.00;79338.94;5012650;28;20777;-69
2022/03/08 00:05:15;;;;;;;15.63;8.02;;;;;;;-142.75;100.00;79342.88;5011368;28;20114;-68
2022/03/08 00:07:40;;;;;;;14.27;8.32;;;;;;;-142.75;100.00;79342.88;5012352;28;20491;-68
2022/03/08 00:10:08;;;;;;;13.98;8.23;;;;;;;-142.75;100.00;79348.78;5011978;28;20048;-68
2022/03/08 00:12:34;;;;;;;14.87;9.13;;;;;;;-142.75;100.00;79346.81;5012155;28;20025;-68
2022/03/08 00:15:00;;;;;;;14.73;7.93;;;;;;;-142.75;100.00;79338.94;5012168;28;20492;-69
2022/03/08 00:17:25;;;;;;;13.73;7.85;;;;;;;-142.75;100.00;79335.00;5012259;28;20038;-69
2022/03/08 00:19:50;;;;;;;15.15;8.10;;;;;;;-142.75;100.00;79340.91;5010697;28;20124;-68
2022/03/08 00:22:16;;;;;;;14.00;8.18;;;;;;;-142.75;100.00;79346.81;5011972;28;20028;-69
2022/03/08 00:24:43;;;;;;;14.32;9.02;;;;;;;-142.75;100.00;79356.66;5012012;28;20165;-68
2022/03/08 00:27:08;;;;;;;;;;;;;;;-142.75;100.00;79362.56;5012476;28;20041;-68
2022/03/08 00:29:33;;;;;;;13.53;8.07;;;;;;;-142.75;100.00;79368.47;5011634;28;19921;-68
2022/03/08 00:31:59;;;;;;;12.07;7.00;;;;;;;-142.75;100.00;79374.38;5011887;28;20021;-68
2022/03/08 00:34:24;;;;;;;13.20;8.00;;;;;;;-142.75;100.00;79376.34;5010430;28;20114;-68
2022/03/08 00:36:49;;;;;;;12.05;7.68;;;;;;;-142.75;100.00;79380.28;5011692;28;20034;-68
2022/03/08 00:39:15;;;;;;;11.85;7.72;;;;;;;-142.75;100.00;79384.22;5010272;28;20520;-68
2022/03/08 00:41:40;;;;;;;14.30;8.70;;;;;;;-142.75;100.00;79390.13;5010426;28;20025;-68
2022/03/08 00:44:06;;;;;;;12.48;7.70;;;;;;;-142.75;100.00;79390.13;5011758;28;20643;-68
2022/03/08 00:46:31;;;;;;;13.90;7.82;;;;;;;-142.75;100.00;79386.19;5011629;28;20018;-68
2022/03/08 00:48:56;;;;;;;12.55;7.70;;;;;;;-142.75;100.00;79382.25;5011422;28;20022;-68
2022/03/08 00:51:23;;;;;;;11.55;7.40;;;;;;;-142.75;100.00;79378.31;5011474;28;20454;-69
2022/03/08 00:53:48;;;;;;;14.87;7.83;;;;;;;-142.75;100.00;79380.28;5011487;28;20508;-68
2022/03/08 00:56:14;;;;;;;13.88;7.85;;;;;;;-142.75;100.00;79374.38;5011442;28;20064;-68
2022/03/08 00:58:41;;;;;;;12.25;7.30;;;;;;;-142.75;100.00;79374.38;5009990;28;20076;-67
2022/03/08 01:01:07;;;;;;;15.23;7.60;;;;;;;-142.75;100.00;79382.25;5011222;28;20502;-68
2022/03/08 01:03:32;;;;;;;;;;;;;;;-142.75;100.00;79382.25;5010603;28;20026;-68
2022/03/08 01:05:57;;;;;;;12.00;6.77;;;;;;;-142.75;100.00;79386.19;5011261;28;19920;-67
2022/03/08 01:08:23;;;;;;;12.65;7.22;;;;;;;-142.75;100.00;79384.22;5009718;28;20116;-68
2022/03/08 01:10:48;;;;;;;13.23;8.53;;;;;;;-142.75;100.00;79380.28;5011242;28;20140;-68
2022/03/08 01:13:13;;;;;;;13.02;6.70;;;;;;;-142.75;100.00;79376.34;5011225;28;20148;-68
2022/03/08 01:15:39;;;;;;;11.00;7.13;;;;;;;-142.75;100.00;79374.38;5011236;28;20121;-68
2022/03/08 01:18:04;;;;;;;10.97;7.33;;;;;;;-142.75;100.00;79378.31;5010849;28;20612;-68
2022/03/08 01:20:29;;;;;;;11.38;7.43;;;;;;;-142.75;100.00;79390.13;5011134;28;20658;-68
2022/03/08 01:22:55;;;;;;;14.98;7.65;;;;;;;-142.75;100.00;79396.06;5011087;28;20026;-68
2022/03/08 01:25:21;;;;;;;14.52;9.02;;;;;;;-142.75;100.00;79392.13;4991562;28;20026;-69
2022/03/08 01:27:47;;;;;;;12.35;6.85;;;;;;;-142.75;100.00;79396.06;4991341;28;20096;-68
2022/03/08 01:30:15;;;;;;;13.07;7.87;;;;;;;-142.75;100.00;79398.03;4991397;28;20109;-68
2022/03/08 01:32:40;;;;;;;14.50;7.93;;;;;;;-142.75;100.00;79405.91;4991411;28;20034;-68
2022/03/08 01:35:06;;;;;;;13.57;7.55;;;;;;;-142.75;100.00;79401.97;4991318;28;20033;-68
2022/03/08 01:37:32;;;;;;;10.40;7.45;;;;;;;-142.75;100.00;79405.91;4991273;28;20053;-68
2022/03/08 01:39:57;;;;;;;16.02;8.43;;;;;;;-142.75;100.00;79405.91;4991191;28;20023;-69
2022/03/08 01:42:24;;;;;;;11.45;7.53;;;;;;;-142.75;100.00;79403.94;4991376;28;20080;-68
2022/03/08 01:44:50;;;;;;;11.60;7.67;;;;;;;-142.75;100.00;79396.06;4991981;28;20122;-69
2022/03/08 01:47:17;;;;;;;;;;;;;;;-142.75;100.00;79386.19;4995898;28;20026;-68
2022/03/08 01:49:44;;;;;;;12.32;7.32;;;;;;;-142.75;100.00;79374.38;4995109;28;19936;-68
2022/03/08 01:52:09;;;;;;;10.73;6.53;;;;;;;-142.75;100.00;79370.44;4995158;28;20104;-67
2022/03/08 01:54:35;;;;;;;12.13;7.55;;;;;;;-142.75;100.00;79362.56;4994105;28;20030;-68
2022/03/08 01:57:01;;;;;;;11.57;6.97;;;;;;;-142.75;100.00;79374.38;4995258;28;20053;-69
2022/03/08 01:59:26;;;;;;;10.85;7.20;;;;;;;-142.75;100.00;79370.44;5007917;28;20121;-67
2022/03/08 02:01:52;;;;;;;11.50;6.47;;;;;;;-142.75;100.00;79366.50;5013271;28;20120;-68
2022/03/08 02:04:17;;;;;;;10.70;6.78;;;;;;;-142.75;100.00;79354.69;5013288;28;20276;-69
2022/03/08 02:06:46;;;;;;;10.13;6.47;;;;;;;-142.75;100.00;79354.69;5013263;28;20474;-68
2022/03/08 02:09:12;;;;;;;11.33;6.23;;;;;;;-142.75;100.00;79348.78;5014330;28;20034;-68
2022/03/08 02:11:38;;;;;;;13.43;5.97;;;;;;;-142.75;100.00;79350.75;5013132;28;20030;-68
2022/03/08 02:14:04;;;;;;;10.48;6.30;;;;;;;-142.75;100.00;79354.69;5014639;28;20068;-69
2022/03/08 02:16:29;;;;;;;12.80;6.75;;;;;;;-142.75;100.00;79350.75;5014606;28;20038;-68
2022/03/08 02:18:55;;;;;;;10.15;6.05;;;;;;;-142.75;100.00;79335.00;5014352;28;20030;-68
2022/03/08 02:21:20;;;;;;;9.90;6.35;;;;;;;-142.75;100.00;79340.91;5014338;28;20029;-68
2022/03/08 02:23:45;;;;;;;10.10;6.45;;;;;;;-142.75;100.00;79340.91;5014313;28;20056;-68
2022/03/08 02:26:11;;;;;;;10.65;6.22;;;;;;;-142.75;100.00;79358.63;5014311;28;20024;-68
2022/03/08 02:28:38;;;;;;;13.75;6.68;;;;;;;-142.75;100.00;79354.69;5013960;28;20109;-68
2022/03/08 02:31:03;;;;;;;11.13;6.30;;;;;;;-142.75;100.00;79362.56;5014089;28;20026;-67
2022/03/08 02:33:28;;;;;;;9.48;5.85;;;;;;;-142.75;100.00;79370.44;5014103;28;20491;-68
2022/03/08 02:35:54;;;;;;;10.05;5.95;;;;;;;-142.75;100.00;79374.38;5012671;28;20026;-69
2022/03/08 02:38:19;;;;;;;11.43;6.88;;;;;;;-142.75;100.00;79384.22;5012512;28;20094;-68
2022/03/08 02:40:45;;;;;;;9.95;6.32;;;;;;;-142.75;100.00;79380.28;5012638;28;20422;-68
2022/03/08 02:43:11;;;;;;;8.73;5.95;;;;;;;-142.75;100.00;79378.31;5013989;28;20030;-68
2022/03/08 02:45:37;;;;;;;10.03;6.67;;;;;;;-142.75;100.00;79376.34;5013921;28;20018;-67
2022/03/08 02:48:04;;;;;;;8.77;5.80;;;;;;;-142.75;100.00;79374.38;5013633;28;20064;-69
2022/03/08 02:50:29;;;;;;;10.67;6.50;;;;;;;-142.75;100.00;79370.44;5013653;28;20026;-68
2022/03/08 02:52:56;;;;;;;9.73;6.10;;;;;;;-142.75;100.00;79370.44;5013857;28;20034;-69
2022/03/08 02:55:24;;;;;;;9.90;5.97;;;;;;;-142.75;100.00;79374.38;5013745;28;20030;-67
2022/03/08 02:57:50;;;;;;;9.43;6.23;;;;;;;-142.75;100.00;79362.56;5012130;28;20119;-68
2022/03/08 03:00:17;;;;;;;11.63;6.00;;;;;;;-142.75;100.00;79364.53;5013492;28;20030;-67
2022/03/08 03:02:43;;;;;;;9.57;6.00;;;;;;;-142.75;100.00;79360.59;5063084;22;20036;-67
2022/03/08 03:05:09;;;;;;;8.10;5.70;;;;;;;-142.75;100.00;79348.78;5052116;28;20017;-66
2022/03/08 03:07:34;;;;;;;8.35;5.47;;;;;;;-142.75;100.00;79346.81;5051827;28;20025;-67
2022/03/08 03:10:00;;;;;;;9.30;5.78;;;;;;;-142.75;100.00;79340.91;5051954;28;20021;-66
2022/03/08 03:12:26;;;;;;;9.80;6.32;;;;;;;-142.75;100.00;79344.84;5053012;28;20040;-67
2022/03/08 03:14:51;;;;;;;9.02;5.63;;;;;;;-142.75;100.00;79342.88;5051706;28;20024;-67
2022/03/08 03:17:17;;;;;;;11.13;5.97;;;;;;;-142.75;100.00;79335.00;5053058;28;20119;-67
2022/03/08 03:19:43;;;;;;;11.15;6.50;;;;;;;-142.75;100.00;79342.88;5052617;28;20275;-67
2022/03/08 03:22:08;;;;;;;8.25;5.40;;;;;;;-142.75;100.00;79346.81;5052885;28;20086;-67
2022/03/08 03:24:33;;;;;;;10.07;5.80;;;;;;;-142.75;100.00;79354.69;5052854;28;20024;-67
2022/03/08 03:26:59;;;;;;;8.90;5.35;;;;;;;-142.75;100.00;79350.75;5051639;28;20134;-66
2022/03/08 03:29:24;;;;;;;9.37;5.53;;;;;;;-142.75;100.00;79354.69;5052521;28;20469;-66
2022/03/08 03:31:49;;;;;;;7.63;5.27;;;;;;;-142.75;100.00;79348.78;5052692;28;20314;-66
2022/03/08 03:34:14;;;;;;;9.10;5.82;;;;;;;-142.75;100.00;79336.94;5052635;28;20306;-67
2022/03/08 03:36:40;;;;;;;8.27;5.57;;;;;;;-142.75;100.00;79342.88;5051361;28;20033;-66
2022/03/08 03:39:07;;;;;;;10.57;6.18;;;;;;;-142.75;100.00;79335.00;5051385;28;20307;-67
2022/03/08 03:41:32;;;;;;;9.47;5.60;;;;;;;-142.75;100.00;79340.91;5052439;28;20025;-67
2022/03/08 03:43:57;;;;;;;9.50;5.85;;;;;;;-142.75;100.00;79333.00;5052588;28;20100;-67
2022/03/08 03:46:23;;;;;;;10.48;5.97;;;;;;;-142.75;100.00;79336.94;5052402;28;20020;-67
2022/03/08 03:48:48;;;;;;;10.02;5.10;;;;;;;-142.75;100.00;79331.03;5052118;28;20457;-67
2022/03/08 03:51:16;;;;;;;12.00;5.70;;;;;;;-142.75;100.00;79331.03;5052338;28;20731;-67
2022/03/08 03:53:41;;;;;;;8.83;5.37;;;;;;;-142.75;100.00;79329.06;5052325;28;20271;-66
2022/03/08 03:56:06;;;;;;;11.90;6.35;;;;;;;-142.75;100.00;79325.13;5052145;28;20040;-66
2022/03/08 03:58:32;;;;;;;12.00;6.00;;;;;;;-142.75;100.00;79327.09;5052041;28;20061;-67
2022/03/08 04:00:57;;;;;;;12.98;5.47;;;;;;;-142.75;100.00;79329.06;5050612;28;20048;-67
2022/03/08 04:03:23;;;;;;;10.13;5.50;;;;;;;-142.75;100.00;79327.09;5052170;28;20103;-67
2022/03/08 04:05:48;;;;;;;9.35;5.68;;;;;;;-142.75;100.00;79309.38;5052078;28;20025;-67
2022/03/08 04:08:13;;;;;;;9.48;5.60;;;;;;;-142.75;100.00;79315.28;5051434;28;20079;-67
2022/03/08 04:10:39;;;;;;;10.60;5.32;;;;;;;-142.75;100.00;79323.16;5052121;28;20032;-67
2022/03/08 04:13:04;;;;;;;8.27;5.30;;;;;;;-142.75;100.00;79333.00;5051731;28;20063;-67
2022/03/08 04:15:30;;;;;;;13.13;6.32;;;;;;;-142.75;100.00;79338.94;5051832;28;20025;-67
2022/03/08 04:17:55;;;;;;;10.35;6.57;;;;;;;-142.75;100.00;79350.75;5050195;28;20056;-66
2022/03/08 04:20:20;;;;;;;9.13;5.68;;;;;;;-142.75;100.00;79346.81;5051762;28;20086;-67
2022/03/08 04:22:46;;;;;;;11.60;6.20;;;;;;;-142.75;100.00;79346.81;5051773;28;20394;-67
2022/03/08 04:25:11;;;;;;;9.40;5.88;;;;;;;-142.75;100.00;79336.94;5051602;28;20436;-66
2022/03/08 04:27:36;;;;;;;14.80;7.90;;;;;;;-142.75;100.00;79335.00;5051716;28;20021;-66
2022/03/08 04:30:06;;;;;;;9.73;6.13;;;;;;;-142.75;100.00;79346.81;5051255;28;20056;-66
2022/03/08 04:32:32;;;;;;;11.27;6.67;;;;;;;-142.75;100.00;79338.94;5051263;28;20083;-67
2022/03/08 04:34:57;;;;;;;10.25;6.20;;;;;;;-142.75;100.00;79344.84;5050147;28;20029;-66
2022/03/08 04:37:22;;;;;;;9.57;6.07;;;;;;;-142.75;100.00;79340.91;5051537;28;20107;-67
2022/03/08 04:39:48;;;;;;;11.40;6.63;;;;;;;-142.75;100.00;79340.91;5051136;28;20279;-66
2022/03/08 04:42:13;;;;;;;12.20;6.65;;;;;;;-142.75;100.00;79331.03;5051429;28;20783;-66
2022/03/08 04:44:38;;;;;;;8.82;6.10;;;;;;;-142.75;100.00;79338.94;5051240;28;20036;-66
2022/03/08 04:47:04;;;;;;;9.82;5.47;;;;;;;-142.75;100.00;79333.00;5051234;28;20452;-66
2022/03/08 04:49:29;;;;;;;12.23;6.97;;;;;;;-142.75;100.00;79335.00;5049579;28;20505;-67
2022/03/08 04:51:54;;;;;;;9.70;6.07;;;;;;;-142.75;100.00;79338.94;5051223;28;20021;-66
2022/03/08 04:54:20;;;;;;;9.75;5.88;;;;;;;-142.75;100.00;79327.09;5051391;28;20036;-67
2022/03/08 04:56:45;;;;;;;12.50;6.50;;;;;;;-142.75;100.00;79346.81;5050965;28;20534;-67
2022/03/08 04:59:10;;;;;;;11.80;7.30;;;;;;;-142.75;100.00;79350.75;5050896;28;20025;-66
2022/03/08 05:01:35;;;;;;;10.82;6.32;;;;;;;-142.75;100.00;79368.47;5050049;28;20032;-66
2022/03/08 05:04:01;;;;;;;9.20;6.85;;;;;;;-142.75;100.00;79368.47;5051186;28;20086;-66
2022/03/08 05:06:29;;;;;;;10.63;6.88;;;;;;;-142.75;100.00;79378.31;5051020;28;20047;-66
2022/03/08 05:08:55;;;;;;;10.43;6.47;;;;;;;-142.75;100.00;79386.19;5050742;28;20056;-66
2022/03/08 05:11:20;;;;;;;11.35;7.32;;;;;;;-142.75;100.00;79384.22;5050890;28;20016;-66
2022/03/08 05:13:45;;;;;;;9.45;6.25;;;;;;;-142.75;100.00;79388.16;5050917;28;20462;-66
2022/03/08 05:16:11;;;;;;;9.88;6.22;;;;;;;-142.75;100.00;79398.03;5050775;28;20119;-66
2022/03/08 05:18:36;;;;;;;11.05;6.30;;;;;;;-142.75;100.00;79405.91;5029361;28;20096;-66
2022/03/08 05:21:01;;;;;;;11.98;6.55;;;;;;;-142.75;100.00;79398.03;5030210;28;20079;-66
2022/03/08 05:23:27;;;;;;;9.90;6.63;;;;;;;-142.75;100.00;79394.09;5030831;28;20032;-66
2022/03/08 05:25:52;;;;;;;10.00;6.00;;;;;;;-142.75;100.00;79398.03;5030944;28;20105;-66
2022/03/08 05:28:18;;;;;;;9.80;6.38;;;;;;;-142.75;100.00;79405.91;5030442;28;20049;-66
2022/03/08 05:30:44;;;;;;;15.32;7.32;;;;;;;-142.75;100.00;79405.91;5030783;28;20025;-66
2022/03/08 05:33:09;;;;;;;11.47;6.03;;;;;;;-142.75;100.00;79417.72;5029582;28;20095;-67
2022/03/08 05:35:35;;;;;;;12.77;6.30;;;;;;;-142.75;100.00;79413.78;5030748;28;20033;-66
2022/03/08 05:38:01;;;;;;;9.05;6.25;;;;;;;-142.75;100.00;79413.78;5030445;28;20635;-67
2022/03/08 05:40:26;;;;;;;9.60;6.15;;;;;;;-142.75;100.00;79415.75;5047872;28;20393;-67
2022/03/08 05:42:52;;;;;;;11.98;6.35;;;;;;;-142.75;100.00;79419.69;5050473;28;20029;-66
2022/03/08 05:45:17;;;;;;;13.90;6.90;;;;;;;-142.75;100.00;79417.72;5050467;28;20028;-67
2022/03/08 05:47:43;;;;;;;10.70;6.97;;;;;;;-142.75;100.00;79415.75;5050475;28;20368;-67
2022/03/08 05:50:11;;;;;;;12.30;6.82;;;;;;;-142.75;100.00;79411.81;5048982;28;20067;-67
2022/03/08 05:52:36;;;;;;;8.73;6.37;;;;;;;-142.75;100.00;79421.66;5050312;28;20564;-66
2022/03/08 05:55:03;;;;;;;11.13;7.03;;;;;;;-142.75;100.00;79415.75;5050211;28;20095;-66
2022/03/08 05:57:28;;;;;;;13.43;6.83;;;;;;;-142.75;100.00;79417.72;5050299;28;20021;-66
2022/03/08 05:59:54;;;;;;;11.45;7.00;;;;;;;-142.75;100.00;79413.78;5049941;28;20505;-67
2022/03/08 06:02:21;;;;;;;9.82;6.45;;;;;;;-142.75;100.00;79411.81;5042351;28;20036;-66
2022/03/08 06:04:46;;;;;;;11.30;6.17;;;;;;;-142.75;100.00;79401.97;5030406;28;20372;-67
2022/03/08 06:07:12;;;;;;;10.60;7.18;;;;;;;-142.75;100.00;79400.00;5030685;28;20029;-67
2022/03/08 06:09:37;;;;;;;12.10;6.55;;;;;;;-142.75;100.00;79398.03;5030145;28;20025;-67
2022/03/08 06:12:03;;;;;;;10.80;6.70;;;;;;;-142.75;100.00;79398.03;5030375;28;20025;-67
2022/03/08 06:14:29;;;;;;;10.25;6.22;;;;;;;-142.75;100.00;79388.16;5030244;28;20432;-68
2022/03/08 06:16:54;;;;;;;10.80;6.75;;;;;;;-142.75;100.00;79386.19;5030322;28;20411;-67
2022/03/08 06:19:20;;;;;;;14.05;7.30;;;;;;;-142.75;100.00;79386.19;5030061;28;20040;-67
2022/03/08 06:21:45;;;;;;;13.40;8.05;;;;;;;-142.75;100.00;79388.16;5030251;28;20108;-67
2022/03/08 06:24:11;;;;;;;12.18;7.53;;;;;;;-142.75;100.00;79376.34;5030269;28;20116;-66
2022/03/08 06:26:37;;;;;;;;;;;;;;;-142.75;100.00;79370.44;5030659;28;20376;-66
2022/03/08 06:29:02;;;;;;;12.53;6.60;;;;;;;-142.75;100.00;79354.69;5029956;28;20000;-67
2022/03/08 06:31:27;;;;;;;13.18;8.20;;;;;;;-142.75;100.00;79350.75;5030374;28;20471;-67
2022/03/08 06:33:53;;;;;;;11.65;7.28;;;;;;;-142.75;100.00;79342.88;5034000;28;20507;-67
2022/03/08 06:36:18;;;;;;;16.77;8.40;;;;;;;-142.75;100.00;79331.03;5033689;28;20383;-67
2022/03/08 06:38:43;;;;;;;14.27;8.13;;;;;;;-142.75;100.00;79323.16;5033625;28;20280;-67
2022/03/08 06:41:09;;;;;;;13.23;6.70;;;;;;;-142.75;100.00;79315.28;5033672;28;20029;-66
2022/03/08 06:43:34;;;;;;;11.23;6.88;;;;;;;-142.75;100.00;79317.25;5015844;28;20355;-67
2022/03/08 06:45:59;;;;;;;9.68;6.45;;;;;;;-142.75;100.00;79301.50;5033685;28;20018;-67
2022/03/08 06:48:24;;;;;;;12.02;7.65;;;;;;;-142.75;100.00;79293.63;5033314;28;20108;-66
2022/03/08 06:50:50;;;;;;;11.48;6.80;;;;;;;-142.75;100.00;79283.78;5033585;28;20403;-66
2022/03/08 06:53:15;;;;;;;10.75;7.00;;;;;;;-142.75;100.00;79271.94;5032477;28;20033;-66
2022/03/08 06:55:41;;;;;;;9.75;6.28;;;;;;;-142.75;100.00;79264.06;5033383;28;20430;-66
2022/03/08 06:58:06;;;;;;;12.85;7.05;;;;;;;-142.75;100.00;79252.25;5033134;28;20029;-67
2022/03/08 07:00:32;;;;;;;9.60;5.40;;;;;;;-142.75;100.00;79242.41;5031987;28;20428;-67
2022/03/08 07:02:57;;;;;;;11.15;6.13;;;;;;;-142.75;100.00;79226.66;5033236;28;20033;-67
2022/03/08 07:05:22;;;;;;;11.20;6.53;;;;;;;-142.75;100.00;79212.84;5033327;28;20014;-66
2022/03/08 07:07:48;;;;;;;9.53;6.33;;;;;;;-142.75;100.00;79199.06;5033219;28;20513;-66
2022/03/08 07:10:13;;;;;;;12.97;6.20;;;;;;;-142.75;100.00;79201.03;5031882;28;20276;-68
2022/03/08 07:12:38;;;;;;;10.32;6.47;;;;;;;-142.75;100.00;79189.22;5032528;28;20030;-68
2022/03/08 07:15:04;;;;;;;13.30;7.07;;;;;;;-142.75;100.00;79181.34;5040985;28;20038;-67
2022/03/08 07:17:30;;;;;;;12.13;5.85;;;;;;;-142.75;100.00;79161.66;5038038;28;20500;-67
2022/03/08 07:19:55;;;;;;;9.23;6.10;;;;;;;-142.75;100.00;79149.81;5034760;28;20029;-68
2022/03/08 07:22:20;;;;;;;10.65;6.38;;;;;;;-142.75;100.00;79128.16;5031793;28;20037;-67
2022/03/08 07:24:46;;;;;;;11.18;6.82;;;;;;;-142.75;100.00;79102.56;5030798;28;20102;-66
2022/03/08 07:27:11;;;;;;;11.55;6.40;;;;;;;-142.75;100.00;79086.78;5030657;28;20021;-67
2022/03/08 07:29:36;;;;;;;11.15;6.95;;;;;;;-142.75;100.00;79078.91;5031210;28;20025;-67
2022/03/08 07:32:02;;;;;;;11.05;6.03;;;;;;;-142.75;100.00;79063.16;5030778;28;20035;-66
2022/03/08 07:34:28;;;;;;;10.32;6.20;;;;;;;-142.75;100.00;79051.34;5031912;28;20175;-67
2022/03/08 07:36:53;;;;;;;10.60;6.75;;;;;;;-142.75;100.00;79035.59;5031637;28;20110;-67
2022/03/08 07:39:18;;;;;;;10.43;6.25;;;;;;;-142.75;100.00;79000.13;5029394;28;20028;-67
2022/03/08 07:41:44;;;;;;;11.32;6.72;;;;;;;-142.75;100.00;78988.31;5031564;28;20036;-67
2022/03/08 07:44:09;;;;;;;50.92;16.65;;;;;;;-142.75;100.00;78984.38;5031037;28;20052;-67
2022/03/08 07:46:36;;;;;;;13.73;7.23;;;;;;;-142.75;100.00;78984.38;5031799;28;20029;-67
2022/03/08 07:49:01;;;;;;;15.50;9.13;;;;;;;-142.75;100.00;78944.97;5031271;28;20276;-67
2022/03/08 07:51:26;;;;;;;13.32;7.20;;;;;;;-142.75;100.00;78925.28;5043748;28;20087;-67
2022/03/08 07:53:52;;;;;;;8.53;5.97;;;;;;;-142.75;100.00;78901.66;5051148;28;20037;-67
2022/03/08 07:56:17;;;;;;;10.82;6.95;;;;;;;-142.75;100.00;78897.72;5052342;28;20360;-67
2022/03/08 07:58:43;;;;;;;10.65;6.65;;;;;;;-142.75;100.00;78897.72;5052210;28;20027;-67
2022/03/08 08:01:08;;;;;;;8.38;6.00;;;;;;;-142.75;100.00;78899.69;5052054;28;20402;-67
2022/03/08 08:03:33;;;;;;;11.38;7.28;;;;;;;-142.75;100.00;78870.13;5052386;28;20104;-66
2022/03/08 08:06:01;;;;;;;9.30;6.75;;;;;;;-142.75;100.00;78850.44;5050796;28;20036;-66
2022/03/08 08:08:26;;;;;;;9.70;6.70;;;;;;;-142.75;100.00;78805.13;5051795;28;20109;-66
2022/03/08 08:10:52;;;;;;;10.18;6.78;;;;;;;-142.75;100.00;78809.06;5051782;28;20044;-67
2022/03/08 08:13:17;;;;;;;9.85;6.15;;;;;;;-142.75;100.00;78807.09;5052031;28;20544;-68
2022/03/08 08:15:42;;;;;;;10.15;6.20;;;;;;;-142.75;100.00;78799.22;5051932;28;20541;-68
2022/03/08 08:18:07;;;;;;;14.10;6.47;;;;;;;-142.75;100.00;78783.47;5030349;28;20095;-68
2022/03/08 08:20:33;;;;;;;9.98;6.53;;;;;;;-142.75;100.00;78742.09;5031955;28;20494;-68
2022/03/08 08:22:58;;;;;;;12.23;6.07;;;;;;;-142.75;94.85;78740.13;5031781;28;20025;-68
2022/03/08 08:25:24;;;;;;;8.95;6.32;;;;;;;-142.75;98.33;78767.72;5031631;28;20017;-68
2022/03/08 08:27:49;;;;;;;9.15;6.10;;;;;;;-142.75;95.89;78748.03;5031594;28;20034;-68
2022/03/08 08:30:14;;;;;;;10.17;7.13;;;;;;;-142.75;95.34;78724.38;5031186;28;20403;-68
2022/03/08 08:32:40;;;;;;;9.77;6.40;;;;;;;-142.75;95.36;78698.78;5031705;28;20286;-68
2022/03/08 08:35:06;;;;;;;9.02;6.32;;;;;;;-142.75;92.75;78690.91;5031556;28;20484;-68
2022/03/08 08:37:31;;;;;;;9.35;6.40;;;;;;;-142.75;87.49;78677.13;5032120;28;20032;-68
2022/03/08 08:39:56;;;;;;;12.52;6.35;;;;;;;-142.75;86.49;78659.38;5031256;28;20025;-68
2022/03/08 08:42:22;;;;;;;9.02;5.70;;;;;;;-142.75;86.12;78633.78;5030383;28;20017;-68
2022/03/08 08:44:47;;;;;;;8.68;6.18;;;;;;;-142.75;83.62;78633.78;5031405;28;20052;-68
2022/03/08 08:47:12;;;;;;;10.73;6.20;;;;;;;-142.75;82.56;78621.97;5031594;28;20033;-68
2022/03/08 08:49:37;;;;;;;9.32;6.22;;;;;;;-142.75;82.28;78639.69;5029766;28;20283;-68
2022/03/08 08:52:03;;;;;;;7.83;5.50;;;;;;;-142.75;83.46;78606.22;5029997;28;20392;-68
2022/03/08 08:54:28;;;;;;;11.73;5.57;;;;;;;-142.75;81.49;78616.06;5046307;28;20107;-68
2022/03/08 08:56:54;;;;;;;7.73;5.73;;;;;;;-142.75;85.16;78586.53;5051076;28;20033;-67
2022/03/08 08:59:19;;;;;;;9.97;6.10;;;;;;;-142.75;82.14;78596.38;5050892;28;20271;-68
2022/03/08 09:01:44;;;;;;;10.43;5.90;;;;;;;-142.75;81.15;78592.44;5056585;22;20052;-67
2022/03/08 09:04:10;;;;;;;14.60;6.00;;;;;;;-142.75;78.20;78598.34;4990834;28;20593;-66
2022/03/08 09:06:35;;;;;;;8.05;5.63;;;;;;;-142.75;78.45;78602.28;4990859;28;20027;-69
2022/03/08 09:09:01;;;;;;;8.67;5.70;;;;;;;-142.75;76.40;78590.47;5006991;28;20022;-68
2022/03/08 09:11:26;;;;;;;8.05;5.55;;;;;;;-142.75;76.43;78574.69;5005897;28;20019;-68
2022/03/08 09:13:52;;;;;;;6.95;4.82;;;;;;;-142.75;76.44;78572.72;4982306;28;20023;-69
2022/03/08 09:16:18;;;;;;;8.60;5.45;;;;;;;-142.75;75.97;78560.91;4989324;28;20502;-68
2022/03/08 09:18:44;;;;;;;7.85;5.35;;;;;;;-142.75;74.62;78549.09;4984800;28;20029;-70
2022/03/08 09:21:10;;;;;;;9.60;5.60;;;;;;;-142.75;74.58;78529.41;4988343;28;20110;-71
2022/03/08 09:23:36;;;;;;;;;;;;;;;-142.75;72.77;78541.22;4981194;28;20081;-67
2022/03/08 09:26:02;;;;;;;7.47;5.20;;;;;;;-142.75;74.63;78523.50;4978767;28;19914;-68
2022/03/08 09:28:27;;;;;;;8.38;5.45;;;;;;;-142.75;73.13;78551.06;4979130;28;20037;-67
2022/03/08 09:30:52;;;;;;;11.80;5.77;;;;;;;-142.75;72.01;78513.66;4989195;28;20037;-68
2022/03/08 09:33:18;;;;;;;9.75;5.50;;;;;;;-142.75;73.53;78535.31;4982886;28;20019;-69
2022/03/08 09:35:43;;;;;;;9.38;5.65;;;;;;;-142.75;70.70;78525.47;4988529;28;20026;-69
2022/03/08 09:38:11;;;;;;;7.70;5.18;;;;;;;-142.75;70.24;78539.25;4981219;28;20027;-70
2022/03/08 09:40:37;;;;;;;12.17;5.30;;;;;;;-142.75;71.69;78523.50;4983753;28;20100;-69
2022/03/08 09:43:03;;;;;;;10.90;5.50;;;;;;;-142.75;71.04;78523.50;4982400;28;20481;-71
2022/03/08 09:45:28;;;;;;;9.15;5.25;;;;;;;-142.75;71.49;78490.00;4984150;28;20023;-68
2022/03/08 09:47:54;;;;;;;8.40;5.73;;;;;;;-142.75;69.38;78462.44;4983941;28;20493;-70
2022/03/08 09:50:19;;;;;;;9.93;6.05;;;;;;;-142.75;71.91;78444.72;4990257;28;20038;-69
2022/03/08 09:52:45;;;;;;;7.80;5.20;;;;;;;-142.75;71.17;78427.00;5001011;28;20031;-69
2022/03/08 09:55:14;;;;;;;9.73;5.85;;;;;;;-142.75;67.85;78436.84;4980579;28;20499;-69
2022/03/08 09:57:40;;;;;;;7.33;5.07;;;;;;;-142.75;67.59;78417.16;4979274;28;20037;-68
2022/03/08 10:00:06;;;;;;;8.57;6.13;;;;;;;-142.75;68.95;78377.75;4985424;28;20427;-68
2022/03/08 10:02:48;;;;;;;9.33;5.20;;;;;;;-142.75;66.17;78373.81;4983955;28;20073;-68
2022/03/08 10:05:15;;;;;;;8.50;5.40;;;;;;;-142.75;65.84;78373.81;4984314;28;20030;-67
2022/03/08 10:08:00;;;;;;;;;;;;;;;-142.75;70.20;78289.13;4991677;28;20041;-68
2022/03/08 10:10:25;;;;;;;8.97;5.70;;;;;;;-142.75;67.47;78237.94;4999904;28;20299;-69
2022/03/08 10:12:57;;;;;;;7.85;5.55;;;;;;;-142.75;63.85;78228.09;4983784;28;20043;-68
2022/03/08 10:15:22;;;;;;;9.27;5.20;;;;;;;-142.75;63.02;78214.31;4981030;28;20031;-67
2022/03/08 10:17:47;;;;;;;7.72;5.45;;;;;;;-142.75;64.35;78212.34;4987731;28;20089;-68
2022/03/08 10:20:28;;;;;;;10.00;5.30;;;;;;;-142.75;63.71;78180.81;4982236;28;20105;-68
2022/03/08 10:22:54;;;;;;;7.93;5.30;;;;;;;-142.75;60.96;78196.59;4982251;28;20018;-69
2022/03/08 10:25:22;;;;;;;7.53;5.40;;;;;;;-142.75;62.56;78165.06;4991552;28;20026;-68
2022/03/08 10:27:53;;;;;;;9.07;5.10;;;;;;;-142.75;62.05;78170.97;4982010;28;20269;-67
2022/03/08 10:30:23;;;;;;;9.67;4.80;;;;;;;-142.75;61.18;78176.88;4985531;28;20092;-69
2022/03/08 10:32:48;;;;;;;7.67;5.07;;;;;;;-142.75;59.94;78216.28;4990095;28;20564;-71
2022/03/08 10:35:29;;;;;;;8.77;5.17;;;;;;;-142.75;58.78;78172.94;4989206;28;20106;-68
2022/03/08 10:37:58;;;;;;;9.17;5.20;;;;;;;-142.75;60.22;78141.44;4986755;28;20270;-68
2022/03/08 10:40:34;;;;;;;7.93;4.77;;;;;;;-142.75;57.35;78174.91;4993264;28;20023;-68
2022/03/08 10:43:01;;;;;;;9.10;5.32;;;;;;;-142.75;59.00;78135.53;4982480;28;20457;-69
2022/03/08 10:45:28;;;;;;;7.60;4.90;;;;;;;-142.75;57.50;78174.91;4979068;28;20022;-68
2022/03/08 10:47:54;;;;;;;6.83;4.47;;;;;;;-142.75;60.59;78121.75;4988105;28;20026;-71
2022/03/08 10:50:23;;;;;;;;;;;;;;;-142.75;56.06;78137.50;4979498;28;20089;-67
2022/03/08 10:52:51;;;;;;;8.50;4.87;;;;;;;-142.75;58.54;78113.88;4983729;28;20295;-69
2022/03/08 10:55:25;;;;;;;9.67;4.93;;;;;;;-142.75;55.51;78078.44;4987486;28;20403;-69
2022/03/08 10:57:55;;;;;;;7.70;4.30;;;;;;;-142.75;55.73;78106.00;4989549;28;20037;-69
2022/03/08 11:00:23;;;;;;;10.53;4.50;;;;;;;-142.75;55.23;78143.41;4978227;28;20033;-71